Time;durP1;ratioP1;P1;durP2;ratioP2;P2;SDS_P1;SDS_P2;PMS_P1;PMS_P2;Temp;Humidity;BMP_temperature;BMP_pressure;BME280_temperature;BME280_humidity;BME280_pressure;Samples;Min_cycle;Max_cycle;Signal;HPM_P1;HPM_P2
2021/08/04 00:02:14;;;;;;;18.10;9.77;;;;;;;20.90;71.59;95010.59;5049708;28;20426;-69
2021/08/04 00:04:41;;;;;;;14.07;8.55;;;;;;;20.81;72.85;95007.84;5048331;28;20040;-69
2021/08/04 00:07:08;;;;;;;14.18;8.35;;;;;;;20.72;73.42;94993.69;5048120;28;20040;-69
2021/08/04 00:09:35;;;;;;;14.25;9.00;;;;;;;20.67;73.13;95001.75;5047073;28;20116;-69
2021/08/04 00:12:04;;;;;;;18.30;9.60;;;;;;;20.64;73.01;95002.31;5046734;28;20041;-69
2021/08/04 00:14:31;;;;;;;17.63;8.77;;;;;;;20.63;72.72;95006.03;5047664;28;20041;-69
2021/08/04 00:16:57;;;;;;;14.77;9.60;;;;;;;20.58;71.95;95011.38;5048018;28;20041;-69
2021/08/04 00:19:24;;;;;;;15.43;8.40;;;;;;;20.41;71.66;95010.03;5047790;28;20041;-69
2021/08/04 00:21:51;;;;;;;16.50;7.95;;;;;;;20.46;71.97;95005.78;5047533;28;20052;-69
2021/08/04 00:24:18;;;;;;;22.40;8.40;;;;;;;20.48;70.22;95017.63;5047674;28;20048;-69
2021/08/04 00:26:45;;;;;;;14.18;7.60;;;;;;;20.53;69.26;95016.78;5047204;28;20041;-69
2021/08/04 00:29:11;;;;;;;11.25;7.22;;;;;;;20.57;68.44;94999.22;5047257;28;20139;-69
2021/08/04 00:31:38;;;;;;;20.05;7.15;;;;;;;20.69;66.97;95015.47;5049305;28;20090;-69
2021/08/04 00:34:05;;;;;;;15.48;7.00;;;;;;;20.74;66.31;95012.75;5048057;28;20072;-69
2021/08/04 00:36:32;;;;;;;15.02;6.82;;;;;;;20.73;66.61;95010.38;5047708;28;20041;-69
2021/08/04 00:38:59;;;;;;;22.67;7.13;;;;;;;20.66;67.70;95009.97;5048248;28;20107;-69
2021/08/04 00:41:26;;;;;;;17.00;8.38;;;;;;;20.56;68.53;95016.97;5061657;28;20095;-69
2021/08/04 00:43:53;;;;;;;16.20;7.03;;;;;;;20.56;68.24;95010.88;5047178;28;20040;-69
2021/08/04 00:46:20;;;;;;;21.23;8.50;;;;;;;20.57;67.27;95013.25;5047957;28;20032;-69
2021/08/04 00:48:48;;;;;;;16.85;8.75;;;;;;;20.58;68.18;95020.13;5049235;28;20052;-69
2021/08/04 00:51:15;;;;;;;18.83;7.57;;;;;;;20.55;68.28;95019.91;5064342;28;20037;-69
2021/08/04 00:53:42;;;;;;;16.15;7.93;;;;;;;20.48;69.15;95030.06;5050330;28;20064;-69
2021/08/04 00:56:09;;;;;;;11.45;7.55;;;;;;;20.33;70.28;95023.94;5045433;28;20045;-69
2021/08/04 00:58:42;;;;;;;17.75;7.70;;;;;;;20.31;69.76;95035.88;5047286;28;20190;-69
2021/08/04 01:01:16;;;;;;;19.92;8.63;;;;;;;20.25;70.11;95027.22;5062377;28;20045;-69
2021/08/04 01:03:46;;;;;;;28.40;10.27;;;;;;;20.27;70.45;95025.06;5061648;28;20052;-69
2021/08/04 01:06:29;;;;;;;29.17;9.07;;;;;;;20.35;70.33;95027.09;5062532;28;20048;-69
2021/08/04 01:08:57;;;;;;;20.42;8.98;;;;;;;20.38;70.10;95029.16;5043590;28;20052;-69
2021/08/04 01:11:32;;;;;;;18.25;8.50;;;;;;;20.43;69.94;95029.06;5045649;28;20437;-69
2021/08/04 01:14:08;;;;;;;24.02;9.65;;;;;;;20.42;69.50;95032.00;5060852;28;20068;-69
2021/08/04 01:16:40;;;;;;;14.98;7.80;;;;;;;20.38;70.00;95015.94;5047476;28;20052;-69
2021/08/04 01:19:26;;;;;;;19.23;7.85;;;;;;;20.41;70.32;95019.84;5044988;28;20404;-69
2021/08/04 01:22:02;;;;;;;27.50;8.90;;;;;;;20.29;71.02;95022.91;5046025;28;20048;-68
2021/08/04 01:24:45;;;;;;;16.30;7.57;;;;;;;20.10;72.26;95024.81;5046102;28;20045;-69
2021/08/04 01:27:14;;;;;;;14.45;7.78;;;;;;;20.04;72.16;95032.81;5044003;28;20049;-69
2021/08/04 01:29:41;;;;;;;19.20;8.05;;;;;;;19.92;71.86;95019.22;5045039;28;20049;-69
2021/08/04 01:32:10;;;;;;;21.55;8.07;;;;;;;19.93;71.56;95028.72;5046157;28;20025;-68
2021/08/04 01:34:38;;;;;;;11.52;7.50;;;;;;;19.93;71.82;95026.06;5046406;28;20070;-68
2021/08/04 01:37:07;;;;;;;12.95;7.35;;;;;;;19.93;71.79;95031.34;5044941;28;20033;-69
2021/08/04 01:39:34;;;;;;;15.77;8.48;;;;;;;19.82;74.00;95025.41;5044681;28;20419;-69
2021/08/04 01:42:02;;;;;;;18.15;7.75;;;;;;;19.78;75.09;95018.34;5044990;28;20090;-68
2021/08/04 01:44:31;;;;;;;14.75;8.13;;;;;;;19.58;75.75;95025.44;5046595;28;20527;-69
2021/08/04 01:46:59;;;;;;;16.52;8.48;;;;;;;19.46;76.07;95028.50;5044797;28;20045;-69
2021/08/04 01:49:28;;;;;;;16.63;7.90;;;;;;;19.46;75.53;95017.13;5061420;28;20659;-69
2021/08/04 01:51:56;;;;;;;19.35;8.38;;;;;;;19.48;76.32;95025.53;5044979;28;20037;-69
2021/08/04 01:54:26;;;;;;;15.90;8.63;;;;;;;19.46;75.59;95017.94;5045663;28;20057;-69
2021/08/04 01:56:53;;;;;;;14.38;8.60;;;;;;;19.38;76.84;95017.75;5045682;28;20118;-69
2021/08/04 01:59:21;;;;;;;21.10;8.77;;;;;;;19.41;76.45;95019.81;5044564;28;20051;-69
2021/08/04 02:01:48;;;;;;;23.83;9.40;;;;;;;19.39;77.20;95021.97;5044198;28;20492;-69
2021/08/04 02:04:15;;;;;;;26.05;9.43;;;;;;;19.18;78.82;95032.75;5045403;28;20434;-69
2021/08/04 02:06:58;;;;;;;24.48;9.90;;;;;;;19.21;78.37;95041.94;5044205;28;20141;-69
2021/08/04 02:09:28;;;;;;;25.83;9.93;;;;;;;19.20;78.12;95041.19;5044569;28;20060;-69
2021/08/04 02:12:07;;;;;;;25.38;10.75;;;;;;;19.22;79.16;95043.53;5044382;28;20037;-69
2021/08/04 02:15:06;;;;;;;20.58;9.88;;;;;;;19.17;79.54;95041.72;5060431;28;20040;-69
2021/08/04 02:17:46;;;;;;;27.05;10.48;;;;;;;19.17;78.99;95036.44;5043630;28;20773;-69
2021/08/04 02:20:24;;;;;;;23.38;10.13;;;;;;;19.15;78.83;95035.94;5045693;28;20837;-69
2021/08/04 02:22:57;;;;;;;27.52;9.73;;;;;;;19.16;78.44;95040.16;5042955;28;20037;-69
2021/08/04 02:25:32;;;;;;;29.17;10.95;;;;;;;19.17;79.30;95036.44;5045511;28;20507;-69
2021/08/04 02:28:02;;;;;;;19.13;11.13;;;;;;;19.16;79.41;95040.16;5043308;28;20056;-69
2021/08/04 02:30:31;;;;;;;23.98;9.85;;;;;;;19.12;79.54;95049.69;5045581;28;20041;-68
2021/08/04 02:33:00;;;;;;;25.00;10.15;;;;;;;18.97;78.92;95050.63;5045242;28;20132;-68
2021/08/04 02:35:27;;;;;;;30.55;10.95;;;;;;;18.84;80.29;95052.06;5045289;28;20045;-69
2021/08/04 02:37:54;;;;;;;20.50;10.13;;;;;;;18.82;80.69;95054.19;5045611;28;20037;-69
2021/08/04 02:40:21;;;;;;;22.63;10.32;;;;;;;18.76;80.68;95057.91;5045380;28;20143;-69
2021/08/04 02:42:50;;;;;;;27.48;11.35;;;;;;;18.75;81.30;95060.84;5045205;28;20064;-69
2021/08/04 02:45:16;;;;;;;20.30;9.82;;;;;;;18.68;80.89;95055.88;5044176;28;20064;-69
2021/08/04 02:47:44;;;;;;;25.85;10.88;;;;;;;18.64;81.19;95049.59;5044092;28;20103;-69
2021/08/04 02:50:13;;;;;;;20.08;10.52;;;;;;;18.57;82.49;95054.38;5045352;28;20048;-69
2021/08/04 02:52:41;;;;;;;26.40;11.40;;;;;;;18.56;82.38;95058.06;5045372;28;20045;-68
2021/08/04 02:55:09;;;;;;;22.30;11.25;;;;;;;18.54;82.44;95056.50;5060436;28;20056;-69
2021/08/04 02:57:36;;;;;;;28.23;11.32;;;;;;;18.52;83.00;95057.84;5046810;28;20045;-69
2021/08/04 03:00:04;;;;;;;24.88;11.27;;;;;;;18.49;83.53;95064.47;5060745;28;20088;-69
2021/08/04 03:02:33;;;;;;;31.83;11.98;;;;;;;18.44;83.28;95053.94;5044995;28;20029;-69
2021/08/04 03:05:00;;;;;;;24.05;11.65;;;;;;;18.48;83.18;95054.97;5044034;28;20085;-69
2021/08/04 03:07:27;;;;;;;21.58;10.63;;;;;;;18.34;84.03;95067.19;5060448;28;20040;-69
2021/08/04 03:09:53;;;;;;;20.33;10.93;;;;;;;18.21;85.21;95059.91;5043895;28;20552;-69
2021/08/04 03:12:20;;;;;;;18.00;10.13;;;;;;;18.20;84.64;95055.69;5043711;28;20156;-69
2021/08/04 03:14:47;;;;;;;21.90;10.75;;;;;;;18.21;84.70;95062.53;5044339;28;20495;-69
2021/08/04 03:17:14;;;;;;;20.27;10.52;;;;;;;18.25;83.59;95066.19;5044905;28;20051;-68
2021/08/04 03:19:41;;;;;;;26.73;10.77;;;;;;;18.27;83.67;95066.72;5045376;28;20049;-68
2021/08/04 03:22:08;;;;;;;23.00;11.23;;;;;;;18.28;83.16;95074.34;5043801;28;20787;-68
2021/08/04 03:24:35;;;;;;;25.10;10.77;;;;;;;18.28;82.78;95076.22;5044731;28;20049;-68
2021/08/04 03:27:02;;;;;;;16.33;9.60;;;;;;;18.26;83.07;95073.06;5045015;28;20048;-68
2021/08/04 03:29:28;;;;;;;17.52;10.15;;;;;;;18.23;82.95;95055.13;5044884;28;20040;-69
2021/08/04 03:31:55;;;;;;;20.15;9.95;;;;;;;18.28;83.46;95073.56;5045466;28;20048;-68
2021/08/04 03:34:22;;;;;;;19.10;10.65;;;;;;;18.22;83.62;95075.44;5049378;28;20045;-68
2021/08/04 03:36:49;;;;;;;23.27;11.63;;;;;;;18.15;83.40;95070.47;5048616;28;20048;-68
2021/08/04 03:39:16;;;;;;;21.77;10.13;;;;;;;18.23;84.17;95087.56;5048256;28;20107;-68
2021/08/04 03:41:42;;;;;;;28.00;11.70;;;;;;;18.25;83.74;95085.44;5049812;28;20055;-68
2021/08/04 03:44:09;;;;;;;28.35;10.70;;;;;;;18.26;84.23;95086.25;5047593;28;20383;-68
2021/08/04 03:46:36;;;;;;;26.83;10.75;;;;;;;18.23;84.70;95079.66;5048207;28;20506;-68
2021/08/04 03:49:03;;;;;;;28.50;12.13;;;;;;;18.18;83.95;95084.16;5049425;28;20045;-68
2021/08/04 03:51:30;;;;;;;25.30;10.77;;;;;;;18.16;84.22;95087.06;5048009;28;20395;-68
2021/08/04 03:53:56;;;;;;;22.55;11.05;;;;;;;18.09;84.00;95087.34;5047911;28;20193;-68
2021/08/04 03:56:23;;;;;;;26.05;11.00;;;;;;;18.05;84.79;95081.06;5049419;28;20131;-68
2021/08/04 03:58:50;;;;;;;25.88;11.82;;;;;;;17.96;85.51;95064.25;5050832;28;20049;-68
2021/08/04 04:01:16;;;;;;;16.92;11.13;;;;;;;18.07;85.74;95089.47;5047955;28;20060;-68
2021/08/04 04:03:43;;;;;;;25.80;11.07;;;;;;;18.08;85.70;95091.06;5047813;28;20114;-68
2021/08/04 04:06:11;;;;;;;22.88;11.40;;;;;;;18.14;85.90;95100.50;5047743;28;20039;-68
2021/08/04 04:08:37;;;;;;;17.60;11.07;;;;;;;18.13;86.28;95108.69;5047631;28;20041;-68
2021/08/04 04:11:05;;;;;;;20.00;11.30;;;;;;;18.19;86.16;95106.84;5046110;28;20487;-68
2021/08/04 04:13:32;;;;;;;18.10;10.85;;;;;;;18.21;87.06;95115.25;5047283;28;20037;-68
2021/08/04 04:15:59;;;;;;;17.15;11.05;;;;;;;18.25;86.63;95111.00;5048155;28;20144;-68
2021/08/04 04:18:26;;;;;;;23.67;12.18;;;;;;;18.24;86.43;95096.25;5049164;28;20112;-68
2021/08/04 04:20:53;;;;;;;26.85;12.80;;;;;;;18.41;86.44;95112.50;5048064;28;20048;-68
2021/08/04 04:23:20;;;;;;;21.23;12.50;;;;;;;18.45;86.06;95115.38;5049719;28;20552;-68
2021/08/04 04:25:46;;;;;;;19.95;11.45;;;;;;;18.59;86.06;95120.84;5047675;28;20517;-69
2021/08/04 04:28:13;;;;;;;28.60;11.80;;;;;;;18.62;86.50;95115.81;5047952;28;20080;-68
2021/08/04 04:30:40;;;;;;;22.67;13.35;;;;;;;18.76;86.09;95125.72;5048004;28;20044;-69
2021/08/04 04:33:07;;;;;;;26.48;11.80;;;;;;;18.84;85.96;95123.31;5047580;28;20640;-68
2021/08/04 04:35:33;;;;;;;19.70;11.70;;;;;;;18.84;86.88;95115.41;5048116;28;20037;-69
2021/08/04 04:38:00;;;;;;;25.73;11.52;;;;;;;18.93;86.99;95120.88;5047863;28;20159;-69
2021/08/04 04:40:27;;;;;;;21.73;11.60;;;;;;;19.02;86.98;95139.56;5047242;28;20049;-69
2021/08/04 04:42:54;;;;;;;19.85;10.52;;;;;;;19.03;87.03;95131.38;5046537;28;20060;-69
2021/08/04 04:45:21;;;;;;;21.90;10.43;;;;;;;19.17;86.21;95142.06;5050006;28;20037;-69
2021/08/04 04:47:48;;;;;;;21.00;10.60;;;;;;;19.19;85.98;95124.06;5047571;28;20099;-69
2021/08/04 04:50:14;;;;;;;20.33;11.15;;;;;;;19.37;85.11;95141.06;5047583;28;20047;-69
2021/08/04 04:52:42;;;;;;;20.77;11.60;;;;;;;19.50;83.86;95139.66;5049326;28;20055;-69
2021/08/04 04:55:11;;;;;;;22.17;10.15;;;;;;;19.56;82.26;95138.53;5047117;28;21613;-68
2021/08/04 04:57:38;;;;;;;19.85;9.15;;;;;;;19.57;81.55;95134.84;5047680;28;20044;-68
2021/08/04 05:00:07;;;;;;;18.00;10.30;;;;;;;19.66;79.77;95137.63;5047447;28;20037;-69
2021/08/04 05:02:38;;;;;;;17.75;9.52;;;;;;;19.77;80.64;95133.03;5045932;28;20033;-68
2021/08/04 05:05:07;;;;;;;17.02;8.57;;;;;;;19.87;80.73;95148.81;5047734;28;20055;-69
2021/08/04 05:13:15;;;;;;;13.50;7.22;;;;;;;19.93;76.45;95142.38;5128507;27;20131;-68
2021/08/04 05:15:42;;;;;;;22.25;8.40;;;;;;;20.01;76.56;95140.97;5131219;27;20046;-69
2021/08/04 05:18:09;;;;;;;14.00;7.22;;;;;;;20.17;75.81;95141.59;5131744;27;20047;-69
2021/08/04 05:20:36;;;;;;;16.20;7.05;;;;;;;20.32;75.58;95148.53;5130119;27;20040;-66
2021/08/04 05:23:03;;;;;;;12.13;6.85;;;;;;;20.41;72.40;95152.09;5132242;27;20048;-68
2021/08/04 05:25:30;;;;;;;18.83;6.82;;;;;;;20.57;72.34;95152.69;5132483;27;20039;-68
2021/08/04 05:27:56;;;;;;;13.95;7.10;;;;;;;20.70;72.19;95149.34;5142237;27;20496;-67
2021/08/04 05:30:23;;;;;;;25.23;7.35;;;;;;;20.90;71.72;95166.00;5145194;27;20431;-68
2021/08/04 05:32:50;;;;;;;12.90;6.85;;;;;;;21.03;70.63;95167.94;5133137;27;20388;-68
2021/08/04 05:35:17;;;;;;;14.13;5.72;;;;;;;21.17;67.49;95171.41;5142377;27;20039;-67
2021/08/04 05:37:44;;;;;;;8.70;5.65;;;;;;;21.20;67.64;95162.88;5141138;27;20118;-68
2021/08/04 05:40:14;;;;;;;10.13;5.70;;;;;;;21.34;69.09;95167.44;5144935;27;20043;-68
2021/08/04 05:42:41;;;;;;;12.30;7.00;;;;;;;21.43;66.96;95171.00;5144656;27;20039;-68
2021/08/04 05:45:09;;;;;;;18.75;7.13;;;;;;;21.61;66.60;95171.22;5139009;27;20039;-68
2021/08/04 05:47:36;;;;;;;12.32;6.80;;;;;;;21.81;65.82;95170.09;5142079;27;20454;-67
2021/08/04 05:50:04;;;;;;;16.35;6.97;;;;;;;22.05;63.47;95177.84;5143641;27;20042;-67
2021/08/04 05:52:31;;;;;;;12.18;6.50;;;;;;;22.09;61.39;95168.22;5141865;27;20035;-70
2021/08/04 05:54:58;;;;;;;11.75;6.22;;;;;;;22.07;63.31;95163.22;5137163;27;20054;-71
2021/08/04 05:57:25;;;;;;;16.15;6.10;;;;;;;22.15;62.63;95175.00;5139980;27;20494;-70
2021/08/04 05:59:52;;;;;;;8.98;5.50;;;;;;;22.23;64.12;95168.22;5132794;27;20043;-69
2021/08/04 06:02:18;;;;;;;10.60;6.15;;;;;;;22.36;62.39;95167.44;5134296;27;20035;-69
2021/08/04 06:04:45;;;;;;;9.93;5.20;;;;;;;22.51;63.34;95176.97;5138899;27;20084;-69
2021/08/04 06:07:12;;;;;;;17.35;5.13;;;;;;;22.58;61.66;95172.03;5139483;27;20570;-69
2021/08/04 06:09:39;;;;;;;9.70;4.95;;;;;;;22.72;62.18;95182.59;5130038;27;20036;-69
2021/08/04 06:12:06;;;;;;;15.00;6.18;;;;;;;22.89;59.99;95187.28;5133495;27;20050;-69
2021/08/04 06:14:33;;;;;;;13.68;6.00;;;;;;;22.94;59.42;95184.53;5133635;27;20050;-69
2021/08/04 06:17:00;;;;;;;11.20;5.80;;;;;;;22.94;59.87;95179.22;5132198;27;20035;-70
2021/08/04 06:19:27;;;;;;;8.20;5.75;;;;;;;23.11;59.41;95185.75;5137407;27;20045;-70
2021/08/04 06:21:54;;;;;;;10.40;5.80;;;;;;;23.22;60.26;95185.22;5134942;27;20061;-70
2021/08/04 06:24:21;;;;;;;11.13;5.75;;;;;;;23.37;60.07;95176.09;5120058;27;20043;-70
2021/08/04 06:26:48;;;;;;;12.98;5.45;;;;;;;23.51;58.90;95181.31;5124822;27;20050;-70
2021/08/04 06:29:15;;;;;;;16.55;6.10;;;;;;;23.58;59.03;95179.00;5121869;27;20105;-70
2021/08/04 06:31:42;;;;;;;11.23;5.95;;;;;;;23.75;57.73;95181.00;5120763;27;20027;-70
2021/08/04 06:34:09;;;;;;;9.13;5.65;;;;;;;23.99;57.06;95185.97;5128595;27;20165;-70
2021/08/04 06:36:35;;;;;;;11.55;6.18;;;;;;;24.09;57.01;95174.25;5128303;27;20031;-69
2021/08/04 06:39:02;;;;;;;16.05;5.00;;;;;;;24.26;57.01;95188.72;5131436;27;20035;-69
2021/08/04 06:41:29;;;;;;;9.48;5.45;;;;;;;24.38;55.07;95179.03;5134217;27;20035;-68
2021/08/04 06:43:56;;;;;;;11.63;5.45;;;;;;;24.53;54.21;95183.16;5128226;27;20118;-67
2021/08/04 06:46:23;;;;;;;12.00;5.63;;;;;;;24.64;54.09;95177.53;5128073;27;20550;-67
2021/08/04 06:48:51;;;;;;;10.38;5.70;;;;;;;24.77;53.82;95171.28;5128148;27;20058;-67
2021/08/04 06:51:17;;;;;;;16.60;5.78;;;;;;;25.04;50.90;95180.81;5126185;27;20050;-67
2021/08/04 06:53:49;;;;;;;14.75;5.20;;;;;;;25.28;50.14;95180.38;5124863;27;20333;-67
2021/08/04 06:56:16;;;;;;;14.80;5.95;;;;;;;25.49;51.66;95174.38;5129446;27;20047;-67
2021/08/04 06:58:43;;;;;;;12.13;6.15;;;;;;;25.61;49.94;95182.50;5126154;27;20046;-67
2021/08/04 07:01:09;;;;;;;10.55;5.45;;;;;;;25.74;50.11;95170.84;5127196;27;20043;-68
2021/08/04 07:03:38;;;;;;;21.67;6.32;;;;;;;25.89;47.72;95171.41;5126873;27;20086;-67
2021/08/04 07:06:08;;;;;;;12.77;5.22;;;;;;;26.04;48.74;95173.59;5132495;27;20553;-67
2021/08/04 07:08:36;;;;;;;10.15;5.38;;;;;;;26.19;48.68;95168.81;5128468;27;20038;-67
2021/08/04 07:11:03;;;;;;;22.45;6.70;;;;;;;26.28;45.90;95172.22;5123885;27;20482;-67
2021/08/04 07:13:30;;;;;;;13.18;5.60;;;;;;;26.44;45.41;95175.88;5112334;27;20039;-67
2021/08/04 07:15:56;;;;;;;13.70;5.50;;;;;;;26.54;46.14;95180.03;5127367;27;20042;-67
2021/08/04 07:18:24;;;;;;;14.48;5.25;;;;;;;26.57;44.63;95173.28;5122904;27;20118;-67
2021/08/04 07:20:51;;;;;;;11.10;5.60;;;;;;;26.70;44.78;95182.97;5128826;27;20035;-67
2021/08/04 07:23:17;;;;;;;11.60;5.53;;;;;;;26.79;43.81;95183.69;5107194;27;20423;-67
2021/08/04 07:25:44;;;;;;;9.32;4.95;;;;;;;26.94;44.51;95182.31;5111899;27;20039;-68
2021/08/04 07:28:11;;;;;;;18.35;5.28;;;;;;;27.13;45.33;95178.38;5111132;27;20040;-68
2021/08/04 07:30:38;;;;;;;10.77;5.47;;;;;;;27.32;41.94;95176.03;5114896;27;20500;-68
2021/08/04 07:33:05;;;;;;;16.05;5.70;;;;;;;27.35;45.25;95174.59;5120523;27;20044;-68
2021/08/04 07:35:32;;;;;;;15.32;5.18;;;;;;;27.48;42.17;95170.84;5116092;27;20039;-68
2021/08/04 07:37:58;;;;;;;9.00;4.82;;;;;;;27.52;40.75;95169.06;5127337;27;20047;-68
2021/08/04 07:40:25;;;;;;;11.07;5.35;;;;;;;27.71;40.04;95170.44;5124302;27;20047;-68
2021/08/04 07:42:52;;;;;;;14.15;5.20;;;;;;;27.82;39.52;95172.38;5124426;27;20042;-69
2021/08/04 07:45:19;;;;;;;19.13;5.60;;;;;;;27.93;38.94;95178.09;5117066;27;20031;-68
2021/08/04 07:47:46;;;;;;;15.43;6.03;;;;;;;28.03;38.35;95180.31;5120138;27;20077;-69
2021/08/04 07:50:14;;;;;;;10.77;5.22;;;;;;;28.15;37.55;95173.41;5114633;27;20065;-69
2021/08/04 07:52:42;;;;;;;11.70;5.43;;;;;;;28.21;38.28;95177.44;5122518;27;20046;-69
2021/08/04 07:55:13;;;;;;;16.63;5.57;;;;;;;28.27;38.95;95176.09;5133050;27;20032;-68
2021/08/04 07:57:40;;;;;;;12.52;4.80;;;;;;;28.50;36.22;95178.28;5133834;27;20045;-68
2021/08/04 08:00:08;;;;;;;12.18;5.82;;;;;;;28.58;36.58;95169.41;5133492;27;20400;-68
2021/08/04 08:02:37;;;;;;;12.00;5.65;;;;;;;28.73;37.00;95176.72;5133428;27;20122;-68
2021/08/04 08:05:05;;;;;;;22.42;5.85;;;;;;;28.92;35.89;95169.97;5133631;27;20051;-69
2021/08/04 08:07:32;;;;;;;13.05;5.80;;;;;;;29.09;34.74;95167.00;5133387;27;20492;-68
2021/08/04 08:09:59;;;;;;;12.60;5.63;;;;;;;29.25;34.22;95163.63;5133649;27;20039;-68
2021/08/04 08:12:26;;;;;;;12.60;5.70;;;;;;;29.43;33.47;95170.22;5114577;27;20043;-71
2021/08/04 08:14:53;;;;;;;13.75;5.75;;;;;;;29.63;34.58;95173.03;5133545;27;20143;-71
2021/08/04 08:17:23;;;;;;;17.55;5.07;;;;;;;29.73;33.76;95167.16;5133222;27;20512;-71
2021/08/04 08:19:49;;;;;;;25.15;5.30;;;;;;;29.87;34.64;95172.91;5133289;27;20047;-70
2021/08/04 08:22:16;;;;;;;19.75;6.10;;;;;;;29.93;31.43;95166.16;5133774;27;20031;-71
2021/08/04 08:24:43;;;;;;;11.70;5.47;;;;;;;30.06;32.17;95163.38;5133713;27;20493;-70
2021/08/04 08:27:10;;;;;;;18.30;4.72;;;;;;;30.16;31.61;95168.22;5133290;27;20492;-71
2021/08/04 08:29:37;;;;;;;17.70;5.28;;;;;;;30.30;31.99;95173.88;5133354;27;20060;-70
2021/08/04 08:32:04;;;;;;;10.57;4.70;;;;;;;30.30;31.69;95173.13;5133025;27;20462;-71
2021/08/04 08:34:30;;;;;;;16.30;6.35;;;;;;;30.40;32.67;95166.47;5114527;27;20058;-71
2021/08/04 08:36:57;;;;;;;17.08;5.13;;;;;;;30.62;32.80;95165.78;5132820;27;20063;-71
2021/08/04 08:39:24;;;;;;;16.50;5.13;;;;;;;30.66;32.14;95163.97;5132732;27;20072;-69
2021/08/04 08:41:51;;;;;;;11.75;4.93;;;;;;;30.77;31.76;95158.03;5132947;27;20038;-69
2021/08/04 08:44:18;;;;;;;19.52;5.70;;;;;;;30.83;31.62;95156.63;5132867;27;20046;-70
2021/08/04 08:46:45;;;;;;;23.73;4.88;;;;;;;30.98;30.83;95157.72;5124235;27;20094;-69
2021/08/04 08:49:12;;;;;;;9.95;4.60;;;;;;;31.22;31.78;95162.03;5132610;27;20067;-69
2021/08/04 08:51:39;;;;;;;17.58;5.40;;;;;;;31.40;29.97;95141.63;5132303;27;20096;-69
2021/08/04 08:54:06;;;;;;;21.98;4.93;;;;;;;31.59;30.65;95143.50;5129799;27;20393;-70
2021/08/04 08:56:33;;;;;;;22.92;5.30;;;;;;;31.67;27.12;95139.00;5132656;27;20088;-71
2021/08/04 08:59:00;;;;;;;13.13;5.03;;;;;;;31.91;29.91;95142.47;5117956;27;20040;-70
2021/08/04 09:01:36;;;;;;;20.42;5.20;;;;;;;32.12;29.19;95133.97;5114381;28;20481;-70
2021/08/04 09:04:07;;;;;;;22.98;5.20;;;;;;;32.23;27.60;95115.28;5103641;28;20119;-71
2021/08/04 09:06:52;;;;;;;13.57;4.53;;;;;;;32.39;28.42;95126.66;5104653;28;20039;-70
2021/08/04 09:09:23;;;;;;;16.65;5.15;;;;;;;32.50;28.45;95124.91;5102021;28;20063;-70
2021/08/04 09:11:51;;;;;;;11.73;4.72;;;;;;;32.78;26.00;95131.81;5106853;28;20055;-70
2021/08/04 09:14:32;;;;;;;12.20;5.35;;;;;;;32.67;28.27;95128.22;5099394;28;20056;-70
2021/08/04 09:17:14;;;;;;;13.82;4.47;;;;;;;32.74;27.87;95128.31;5103933;28;20420;-70
2021/08/04 09:19:53;;;;;;;22.42;7.10;;;;;;;32.87;28.72;95124.22;5102722;28;20055;-71
2021/08/04 09:22:26;;;;;;;17.13;5.35;;;;;;;32.94;27.25;95127.00;5103895;28;20093;-71
2021/08/04 09:24:58;;;;;;;11.73;3.80;;;;;;;33.17;25.90;95123.44;5105203;28;20056;-71
2021/08/04 09:27:48;;;;;;;16.53;4.13;;;;;;;32.95;26.41;95123.19;5103688;28;20421;-70
2021/08/04 09:30:19;;;;;;;15.02;2.88;;;;;;;33.19;25.61;95121.16;5085040;28;20058;-71
2021/08/04 09:32:46;;;;;;;13.45;4.10;;;;;;;33.25;25.43;95121.59;5102749;28;20028;-71
2021/08/04 09:35:16;;;;;;;20.65;3.35;;;;;;;33.56;25.57;95123.03;5103002;28;20191;-72
2021/08/04 09:37:44;;;;;;;18.77;4.03;;;;;;;33.83;24.18;95125.59;5106643;28;20134;-71
2021/08/04 09:40:15;;;;;;;14.88;3.30;;;;;;;34.05;24.45;95127.31;5104719;28;20440;-71
2021/08/04 09:42:45;;;;;;;14.30;4.43;;;;;;;34.07;23.51;95125.03;5104551;28;20035;-71
2021/08/04 09:45:15;;;;;;;11.65;3.25;;;;;;;34.13;23.72;95127.38;5104789;28;20062;-71
2021/08/04 09:47:58;;;;;;;17.38;3.42;;;;;;;34.35;23.00;95118.25;5099503;28;20065;-71
2021/08/04 09:50:25;;;;;;;15.07;3.75;;;;;;;34.58;24.10;95119.94;5082243;28;20054;-71
2021/08/04 09:52:54;;;;;;;10.05;3.55;;;;;;;34.73;23.17;95121.56;5104842;28;20040;-71
2021/08/04 09:55:23;;;;;;;14.82;4.10;;;;;;;35.05;23.57;95110.09;5104831;28;20536;-72
2021/08/04 09:57:52;;;;;;;10.55;3.03;;;;;;;35.17;22.39;95104.34;5105592;28;20122;-71
2021/08/04 10:00:21;;;;;;;14.80;3.95;;;;;;;35.35;21.99;95111.75;5107437;27;20516;-71
2021/08/04 10:02:48;;;;;;;16.38;4.07;;;;;;;35.41;23.03;95100.13;5108000;27;20039;-72
2021/08/04 10:05:24;;;;;;;23.17;4.38;;;;;;;35.49;23.65;95106.34;5105651;27;20535;-71
2021/08/04 10:08:06;;;;;;;20.70;4.28;;;;;;;35.85;22.38;95100.94;5115076;27;20043;-72
2021/08/04 10:10:45;;;;;;;14.20;5.00;;;;;;;35.69;22.01;95097.81;5107804;27;20508;-71
2021/08/04 10:13:14;;;;;;;18.95;4.85;;;;;;;35.84;22.33;95104.06;5108518;27;20040;-71
2021/08/04 10:15:44;;;;;;;16.02;3.92;;;;;;;35.97;21.70;95097.84;5111666;27;20060;-71
2021/08/04 10:18:12;;;;;;;11.98;4.10;;;;;;;35.70;21.98;95099.41;5110293;27;20051;-72
2021/08/04 10:20:40;;;;;;;17.50;4.38;;;;;;;35.78;22.36;95100.94;5106743;27;20052;-72
2021/08/04 10:23:08;;;;;;;14.02;4.07;;;;;;;35.97;22.67;95087.00;5106320;27;20535;-72
2021/08/04 10:25:35;;;;;;;19.20;4.57;;;;;;;36.13;22.78;95093.97;5106057;27;20085;-71
2021/08/04 10:28:05;;;;;;;13.90;4.45;;;;;;;36.04;21.95;95102.50;5106239;27;20125;-71
2021/08/04 10:30:33;;;;;;;16.92;4.60;;;;;;;36.13;21.13;95099.38;5107597;27;20068;-71
2021/08/04 10:33:00;;;;;;;14.52;3.88;;;;;;;35.82;20.82;95085.47;5090488;28;20126;-72
2021/08/04 10:35:27;;;;;;;15.40;5.05;;;;;;;35.42;21.82;95080.03;5106841;27;20078;-72
2021/08/04 10:37:55;;;;;;;12.98;4.00;;;;;;;35.89;24.50;95073.84;5110038;27;20031;-72
2021/08/04 10:40:26;;;;;;;14.75;3.65;;;;;;;36.33;22.67;95078.81;5108245;27;20043;-72
2021/08/04 10:42:53;;;;;;;11.75;4.05;;;;;;;35.96;22.55;95085.47;5107871;27;20455;-72
2021/08/04 10:45:23;;;;;;;18.52;4.88;;;;;;;36.28;22.35;95067.63;5093103;27;20044;-72
2021/08/04 10:47:51;;;;;;;14.07;4.63;;;;;;;36.66;24.11;95079.50;5107216;28;20039;-72
2021/08/04 10:50:18;;;;;;;16.67;4.88;;;;;;;36.85;21.77;95082.94;5107292;27;20108;-72
2021/08/04 10:52:57;;;;;;;11.85;3.80;;;;;;;37.20;20.12;95081.22;5098886;27;20044;-73
2021/08/04 10:55:25;;;;;;;22.17;4.97;;;;;;;37.28;19.63;95077.28;5108139;27;20054;-72
2021/08/04 10:58:05;;;;;;;20.55;4.50;;;;;;;37.52;19.71;95080.22;5108830;27;20042;-73
2021/08/04 11:00:33;;;;;;;14.25;4.57;;;;;;;37.59;20.11;95075.50;5107670;27;20039;-73
2021/08/04 11:03:20;;;;;;;19.98;5.35;;;;;;;37.40;20.58;95060.53;5108099;27;20059;-73
2021/08/04 11:06:09;;;;;;;19.33;5.10;;;;;;;37.90;20.86;95069.47;5108458;27;20119;-72
2021/08/04 11:08:38;;;;;;;17.83;3.88;;;;;;;37.66;20.84;95063.84;5106361;28;20043;-71
2021/08/04 11:11:06;;;;;;;16.70;4.55;;;;;;;37.91;20.96;95063.63;5106070;28;20048;-73
2021/08/04 11:13:45;;;;;;;14.02;4.32;;;;;;;38.06;20.21;95069.69;5106521;28;20051;-73
2021/08/04 11:16:24;;;;;;;18.30;5.30;;;;;;;38.30;20.28;95072.56;5106469;27;20047;-73
2021/08/04 11:19:03;;;;;;;11.45;4.68;;;;;;;38.38;20.65;95068.63;5108665;27;20051;-72
2021/08/04 11:21:31;;;;;;;15.57;5.10;;;;;;;38.56;19.31;95063.75;5107693;27;20130;-73
2021/08/04 11:23:59;;;;;;;14.55;4.72;;;;;;;38.66;19.86;95064.78;5107419;27;20078;-72
2021/08/04 11:26:39;;;;;;;19.05;6.30;;;;;;;38.85;18.81;95063.41;5109399;27;20044;-73
2021/08/04 11:29:07;;;;;;;16.60;5.57;;;;;;;38.97;19.36;95060.13;5108038;27;20048;-73
2021/08/04 11:31:34;;;;;;;15.40;4.63;;;;;;;39.12;19.32;95059.97;5088077;28;20050;-73
2021/08/04 11:34:27;;;;;;;11.50;3.72;;;;;;;39.40;19.04;95064.22;5106865;27;20510;-73
2021/08/04 11:37:01;;;;;;;16.83;5.13;;;;;;;39.66;18.16;95059.16;5107438;27;20035;-73
2021/08/04 11:39:28;;;;;;;14.40;4.30;;;;;;;39.66;18.37;95053.72;5108579;27;20461;-73